Terminal Aerodrome Forecast
Issued by NWS

Home | Current Version | Previous Version | Text Only | Print | Product List | Glossary On
Versions: 1 2 3 4 5 6 7 8 9 10 11 12 13 14 15 16 17 18 19 20 21 22
115
FTUS43 KAPX 252352 RRA
TAFMBL
TAF
KMBL 252352Z 2600/2624 29013G25KT P6SM OVC030
     FM260200 30012G24KT P6SM BKN040
     FM260400 29010KT P6SM SCT110
     FM261200 23009KT P6SM VCSH BKN060
     FM261800 21015G23KT P6SM OVC060=

USA.gov is the U.S. government's official web portal to all federal, state and local government web resources and services.